createdAt,value
2019-04-23T00:01:49.281Z,5.43
2019-04-23T00:04:20.423Z,4.10
2019-04-23T00:06:53.750Z,5.53
2019-04-23T00:09:15.615Z,3.40
2019-04-23T00:11:40.556Z,4.20
2019-04-23T00:14:05.607Z,6.00
2019-04-23T00:16:29.832Z,8.40
2019-04-23T00:18:49.488Z,11.17
2019-04-23T00:21:39.005Z,3.43
2019-04-23T00:24:12.057Z,4.60
2019-04-23T00:26:32.720Z,4.90
2019-04-23T00:31:24.700Z,4.83
2019-04-23T00:33:45.766Z,12.73
2019-04-23T00:36:10.775Z,5.67
2019-04-23T00:38:38.962Z,8.10
2019-04-23T00:41:05.710Z,5.73
2019-04-23T00:43:32.793Z,6.30
2019-04-23T00:45:57.674Z,6.53
2019-04-23T00:48:52.601Z,3.42
2019-04-23T00:55:47.842Z,5.23
2019-04-23T01:00:44.929Z,6.10
2019-04-23T01:03:05.837Z,5.53
2019-04-23T01:05:30.755Z,5.97
2019-04-23T01:07:58.110Z,5.00
2019-04-23T01:10:34.891Z,6.70
2019-04-23T01:12:59.679Z,7.57
2019-04-23T01:15:34.101Z,6.50
2019-04-23T01:18:08.122Z,4.47
2019-04-23T01:20:28.463Z,13.37
2019-04-23T01:22:37.886Z,6.33
2019-04-23T01:25:21.212Z,4.60
2019-04-23T01:28:23.113Z,7.60
2019-04-23T01:30:41.111Z,5.23
2019-04-23T01:33:09.200Z,7.90
2019-04-23T01:37:58.071Z,5.47
2019-04-23T01:40:34.755Z,4.53
2019-04-23T01:42:56.067Z,5.83
2019-04-23T01:47:50.152Z,5.13
2019-04-23T01:52:45.540Z,5.90
2019-04-23T01:55:09.650Z,10.73
2019-04-23T01:57:37.769Z,5.27
2019-04-23T02:00:03.291Z,8.83
2019-04-23T02:02:38.151Z,5.80
2019-04-23T02:05:01.385Z,5.90
2019-04-23T02:07:29.696Z,5.13
2019-04-23T02:09:48.526Z,4.60
2019-04-23T02:12:18.818Z,6.53
2019-04-23T02:14:43.560Z,8.67
2019-04-23T02:17:13.964Z,7.33
2019-04-23T02:19:38.519Z,4.17
2019-04-23T02:22:21.925Z,7.53
2019-04-23T02:24:41.400Z,7.60
2019-04-23T02:27:05.650Z,4.80
2019-04-23T02:32:08.851Z,5.03
2019-04-23T02:34:51.954Z,5.20
2019-04-23T02:36:57.705Z,6.50
2019-04-23T02:39:26.509Z,3.80
2019-04-23T02:41:54.456Z,10.53
2019-04-23T02:44:16.610Z,8.43
2019-04-23T02:46:40.880Z,4.77
2019-04-23T02:49:20.555Z,11.60
2019-04-23T02:51:39.571Z,6.73
2019-04-23T02:59:05.829Z,4.60
2019-04-23T03:01:31.777Z,5.20
2019-04-23T03:03:59.830Z,5.57
2019-04-23T03:06:14.948Z,5.95
2019-04-23T03:08:57.258Z,8.37
2019-04-23T03:11:23.632Z,4.85
2019-04-23T03:13:53.943Z,7.93
2019-04-23T03:16:47.679Z,5.10
2019-04-23T03:21:31.263Z,6.27
2019-04-23T03:24:28.560Z,6.97
2019-04-23T03:26:42.138Z,5.00
2019-04-23T03:28:57.639Z,8.37
2019-04-23T03:41:15.811Z,7.50
2019-04-23T03:48:34.021Z,6.23
2019-04-23T03:50:43.646Z,5.27
2019-04-23T03:53:34.698Z,6.15
2019-04-23T03:58:21.431Z,6.50
2019-04-23T04:08:16.040Z,11.12
2019-04-23T04:10:25.467Z,10.47
2019-04-23T04:15:48.946Z,7.50
2019-04-23T04:27:45.800Z,7.60
2019-04-23T04:32:41.388Z,7.27
2019-04-23T04:44:47.794Z,7.90
2019-04-23T04:47:09.675Z,8.07
2019-04-23T04:49:48.661Z,12.33
2019-04-23T04:52:26.781Z,6.90
2019-04-23T04:59:24.566Z,6.40
2019-04-23T05:04:19.863Z,6.33
2019-04-23T05:06:51.271Z,8.83
2019-04-23T05:09:11.405Z,7.90
2019-04-23T05:11:46.145Z,8.20
2019-04-23T05:16:29.282Z,6.80
2019-04-23T05:21:36.939Z,8.30
2019-04-23T05:23:54.426Z,10.27
2019-04-23T05:26:25.056Z,6.20
2019-04-23T05:28:55.551Z,6.97
2019-04-23T05:31:17.211Z,6.40
2019-04-23T05:33:41.494Z,9.03
2019-04-23T05:38:43.193Z,10.43
2019-04-23T05:43:26.158Z,8.10
2019-04-23T05:45:57.381Z,7.83
2019-04-23T05:53:11.539Z,8.68
2019-04-23T05:55:45.932Z,8.20
2019-04-23T05:58:15.094Z,9.20
2019-04-23T06:00:39.911Z,8.53
2019-04-23T06:03:08.093Z,9.93
2019-04-23T06:05:34.135Z,12.73
2019-04-23T06:07:55.224Z,7.63
2019-04-23T06:10:26.970Z,9.70
2019-04-23T06:12:52.286Z,8.40
2019-04-23T06:15:22.006Z,9.10
2019-04-23T06:17:47.492Z,8.88
2019-04-23T06:20:09.986Z,10.10
2019-04-23T06:25:35.172Z,11.67
2019-04-23T06:27:45.999Z,7.50
2019-04-23T06:29:57.484Z,11.90
2019-04-23T06:32:25.856Z,10.10
2019-04-23T06:37:24.720Z,11.53
2019-04-23T06:39:50.099Z,9.47
2019-04-23T06:42:09.596Z,9.43
2019-04-23T06:44:44.982Z,9.53
2019-04-23T06:47:06.934Z,11.97
2019-04-23T06:49:37.347Z,7.93
2019-04-23T06:52:15.160Z,8.83
2019-04-23T06:54:36.520Z,9.10
2019-04-23T06:57:09.081Z,13.13
2019-04-23T06:59:29.328Z,9.25
2019-04-23T07:04:17.911Z,10.30
2019-04-23T07:06:48.757Z,8.93
2019-04-23T07:09:10.553Z,13.60
2019-04-23T07:13:58.487Z,9.73
2019-04-23T07:16:27.822Z,9.07
2019-04-23T07:19:19.873Z,12.10
2019-04-23T07:21:23.583Z,9.50
2019-04-23T07:26:33.294Z,6.73
2019-04-23T07:28:50.116Z,9.00
2019-04-23T07:31:26.318Z,8.57
2019-04-23T07:33:47.588Z,9.83
2019-04-23T07:36:15.624Z,11.33
2019-04-23T07:41:52.722Z,7.70
2019-04-23T07:47:16.197Z,7.27
2019-04-23T07:49:30.739Z,8.05
2019-04-23T07:52:02.979Z,12.43
2019-04-23T07:54:32.566Z,10.13
2019-04-23T07:56:54.066Z,7.33
2019-04-23T07:59:20.743Z,12.53
2019-04-23T08:01:39.156Z,9.93
2019-04-23T08:04:14.356Z,8.13
2019-04-23T08:06:39.998Z,7.80
2019-04-23T08:09:02.320Z,10.35
2019-04-23T08:23:57.314Z,9.33
2019-04-23T08:26:48.177Z,9.63
2019-04-23T08:29:14.028Z,7.77
2019-04-23T08:34:16.780Z,7.70
2019-04-23T08:36:35.813Z,8.00
2019-04-23T08:38:58.675Z,8.10
2019-04-23T08:44:16.906Z,9.37
2019-04-23T08:46:35.548Z,8.60
2019-04-23T08:49:01.848Z,9.33
2019-04-23T08:51:32.404Z,6.53
2019-04-23T08:53:40.781Z,8.80
2019-04-23T08:56:11.934Z,6.00
2019-04-23T08:58:41.473Z,11.70
2019-04-23T09:01:13.691Z,11.90
2019-04-23T09:03:31.271Z,8.00
2019-04-23T09:05:57.651Z,8.70
2019-04-23T09:08:27.284Z,7.50
2019-04-23T09:11:07.644Z,6.40
2019-04-23T09:15:49.781Z,7.50
2019-04-23T09:18:16.419Z,9.37
2019-04-23T09:20:39.401Z,12.15
2019-04-23T09:23:01.915Z,9.73
2019-04-23T09:25:42.282Z,9.47
2019-04-23T09:27:59.387Z,6.30
2019-04-23T09:33:06.493Z,8.43
2019-04-23T09:35:36.363Z,11.50
2019-04-23T09:38:11.624Z,10.60
2019-04-23T09:43:48.544Z,11.23
2019-04-23T09:46:18.006Z,11.87
2019-04-23T09:48:50.970Z,8.70
2019-04-23T09:51:13.578Z,9.53
2019-04-23T09:53:34.403Z,7.57
2019-04-23T09:56:01.108Z,7.40
2019-04-23T09:58:21.887Z,12.45
2019-04-23T10:01:19.597Z,11.53
2019-04-23T10:03:25.448Z,8.65
2019-04-23T10:05:49.049Z,14.57
2019-04-23T10:08:18.545Z,9.30
2019-04-23T10:10:32.510Z,8.23
2019-04-23T10:13:00.173Z,9.30
2019-04-23T10:15:32.412Z,8.30
2019-04-23T10:17:54.116Z,8.67
2019-04-23T10:20:20.640Z,13.03
2019-04-23T10:22:46.312Z,11.60
2019-04-23T10:25:12.986Z,11.30
2019-04-23T10:27:41.236Z,11.48
2019-04-23T10:30:07.949Z,7.43
2019-04-23T10:32:33.539Z,7.07
2019-04-23T10:35:10.152Z,9.53
2019-04-23T10:37:39.429Z,7.90
2019-04-23T10:39:56.676Z,8.30
2019-04-23T10:42:21.799Z,9.90
2019-04-23T10:45:08.162Z,9.03
2019-04-23T10:47:54.298Z,13.70
2019-04-23T10:50:26.045Z,12.97
2019-04-23T10:53:04.518Z,10.23
2019-04-23T10:55:32.235Z,10.47
2019-04-23T10:57:36.069Z,14.10
2019-04-23T11:00:09.490Z,11.13
2019-04-23T11:05:11.783Z,13.25
2019-04-23T11:07:38.393Z,10.80
2019-04-23T11:10:03.319Z,9.83
2019-04-23T11:12:43.652Z,11.13
2019-04-23T11:15:23.347Z,9.23
2019-04-23T11:17:47.944Z,13.80
2019-04-23T11:20:15.158Z,8.03
2019-04-23T11:24:59.158Z,15.47
2019-04-23T11:27:28.116Z,11.07
2019-04-23T11:30:05.704Z,9.73
2019-04-23T11:32:42.907Z,10.50
2019-04-23T11:35:04.347Z,7.00
2019-04-23T11:37:23.117Z,10.93
2019-04-23T11:44:49.545Z,8.33
2019-04-23T11:47:08.295Z,11.73
2019-04-23T11:49:44.840Z,10.23
2019-04-23T11:52:05.582Z,11.07
2019-04-23T11:54:24.187Z,11.30
2019-04-23T11:59:25.732Z,12.27
2019-04-23T12:09:54.992Z,7.80
2019-04-23T12:12:26.830Z,13.63
2019-04-23T12:14:39.148Z,10.20
2019-04-23T12:29:30.413Z,10.83
2019-04-23T12:32:01.825Z,12.88
2019-04-23T12:34:25.799Z,17.00
2019-04-23T12:36:46.661Z,10.65
2019-04-23T12:39:21.481Z,9.10
2019-04-23T12:41:45.512Z,10.57
2019-04-23T12:44:19.437Z,14.17
2019-04-23T12:46:46.199Z,11.70
2019-04-23T12:51:48.699Z,9.43
2019-04-23T12:53:57.933Z,15.78
2019-04-23T12:56:32.008Z,11.33
2019-04-23T12:58:45.169Z,8.83
2019-04-23T13:01:14.131Z,15.37
2019-04-23T13:03:40.899Z,10.77
2019-04-23T13:06:11.471Z,11.27
2019-04-23T13:11:08.013Z,13.47
2019-04-23T13:15:53.248Z,10.87
2019-04-23T13:18:31.887Z,10.67
2019-04-23T13:20:41.804Z,8.43
2019-04-23T13:25:54.279Z,14.45
2019-04-23T13:28:21.433Z,10.13
2019-04-23T13:33:26.774Z,13.87
2019-04-23T13:35:53.393Z,11.03
2019-04-23T13:40:39.290Z,12.83
2019-04-23T13:43:01.146Z,12.33
2019-04-23T13:48:00.399Z,12.10
2019-04-23T13:50:34.592Z,12.63
2019-04-23T13:55:09.179Z,13.33
2019-04-23T14:00:09.421Z,11.43
2019-04-23T14:05:04.747Z,12.50
2019-04-23T14:07:38.378Z,12.93
2019-04-23T14:12:31.930Z,8.50
2019-04-23T14:15:12.467Z,11.90
2019-04-23T14:17:38.230Z,10.63
2019-04-23T14:19:53.524Z,8.53
2019-04-23T14:22:31.299Z,15.77
2019-04-23T14:24:53.157Z,9.80
2019-04-23T14:27:14.946Z,10.25
2019-04-23T14:29:38.865Z,14.70
2019-04-23T14:32:08.772Z,8.43
2019-04-23T14:34:30.469Z,9.47
2019-04-23T14:36:59.515Z,10.10
2019-04-23T14:39:25.512Z,10.70
2019-04-23T14:41:53.932Z,9.40
2019-04-23T14:46:54.866Z,11.83
2019-04-23T14:49:24.656Z,14.00
2019-04-23T14:51:51.619Z,9.93
2019-04-23T14:54:15.818Z,14.90
2019-04-23T14:56:44.883Z,10.00
2019-04-23T15:01:36.311Z,12.73
2019-04-23T15:03:55.282Z,10.43
2019-04-23T15:11:27.611Z,19.80
2019-04-23T15:16:22.329Z,12.33
2019-04-23T15:21:42.907Z,11.70
2019-04-23T15:23:51.415Z,11.80
2019-04-23T15:28:10.151Z,10.00
2019-04-23T15:31:02.478Z,10.47
2019-04-23T15:36:12.951Z,14.03
2019-04-23T15:38:37.699Z,11.57
2019-04-23T15:40:53.921Z,16.50
2019-04-23T15:45:44.499Z,11.23
2019-04-23T15:48:12.038Z,10.90
2019-04-23T15:50:37.649Z,16.80
2019-04-23T15:55:28.300Z,20.93
2019-04-23T16:00:19.249Z,16.00
2019-04-23T16:02:20.866Z,14.53
2019-04-23T16:04:48.960Z,12.07
2019-04-23T16:07:31.476Z,14.33
2019-04-23T16:12:31.391Z,11.73
2019-04-23T16:15:07.804Z,16.53
2019-04-23T16:17:28.899Z,12.63
2019-04-23T16:20:25.518Z,15.63
2019-04-23T16:25:17.321Z,10.10
2019-04-23T16:27:26.045Z,12.70
2019-04-23T16:32:38.040Z,12.23
2019-04-23T16:35:12.876Z,11.80
2019-04-23T16:37:27.393Z,10.03
2019-04-23T16:40:01.850Z,8.57
2019-04-23T16:42:24.882Z,9.13
2019-04-23T16:45:02.793Z,11.70
2019-04-23T16:47:21.711Z,16.40
2019-04-23T16:49:47.246Z,16.80
2019-04-23T16:52:07.819Z,9.33
2019-04-23T16:54:39.109Z,10.73
2019-04-23T16:59:54.293Z,15.75
2019-04-23T17:02:03.614Z,18.37
2019-04-23T17:04:24.821Z,9.30
2019-04-23T17:06:53.496Z,12.95
2019-04-23T17:09:22.045Z,8.00
2019-04-23T17:11:41.734Z,10.97
2019-04-23T17:14:13.570Z,11.30
2019-04-23T17:16:40.114Z,16.10
2019-04-23T17:19:10.410Z,9.30
2019-04-23T17:21:29.845Z,13.47
2019-04-23T17:24:08.085Z,20.63
2019-04-23T17:26:25.666Z,19.10
2019-04-23T17:28:54.325Z,18.40
2019-04-23T17:31:30.836Z,14.77
2019-04-23T17:36:28.562Z,7.63
2019-04-23T17:39:01.354Z,23.30
2019-04-23T17:44:01.433Z,11.27
2019-04-23T17:48:40.293Z,30.13
2019-04-23T17:51:17.721Z,16.40
2019-04-23T17:53:40.460Z,11.53
2019-04-23T17:56:26.249Z,17.50
2019-04-23T17:58:37.228Z,14.93
2019-04-23T18:01:17.046Z,21.07
2019-04-23T18:03:46.025Z,36.17
2019-04-23T18:08:27.714Z,44.83
2019-04-23T18:10:56.300Z,48.13
2019-04-23T18:13:21.068Z,28.40
2019-04-23T18:15:45.251Z,23.20
2019-04-23T18:18:10.086Z,19.33
2019-04-23T18:20:56.121Z,19.70
2019-04-23T18:23:10.016Z,18.13
2019-04-23T18:25:51.838Z,14.35
2019-04-23T18:28:10.415Z,20.97
2019-04-23T18:30:56.689Z,19.80
2019-04-23T18:33:56.694Z,22.27
2019-04-23T18:35:44.608Z,22.10
2019-04-23T18:41:00.958Z,19.63
2019-04-23T18:43:20.181Z,14.23
2019-04-23T18:48:11.066Z,14.03
2019-04-23T18:50:48.348Z,11.30
2019-04-23T18:53:09.776Z,17.50
2019-04-23T18:55:46.572Z,14.27
2019-04-23T18:58:03.886Z,15.60
2019-04-23T19:00:39.484Z,17.30
2019-04-23T19:03:21.792Z,12.83
2019-04-23T19:06:10.055Z,15.80
2019-04-23T19:08:48.964Z,12.97
2019-04-23T19:11:31.917Z,22.87
2019-04-23T19:13:44.585Z,41.50
2019-04-23T19:16:13.100Z,48.30
2019-04-23T19:18:45.154Z,26.60
2019-04-23T19:21:10.803Z,33.83
2019-04-23T19:23:42.844Z,15.30
2019-04-23T19:25:54.615Z,15.57
2019-04-23T19:28:41.402Z,15.80
2019-04-23T19:31:06.267Z,18.63
2019-04-23T19:33:36.660Z,13.80
2019-04-23T19:36:04.493Z,15.50
2019-04-23T19:38:23.954Z,24.60
2019-04-23T19:40:51.196Z,32.37
2019-04-23T19:43:11.956Z,32.63
2019-04-23T19:48:11.480Z,20.95
2019-04-23T19:50:40.630Z,15.43
2019-04-23T19:55:24.113Z,10.07
2019-04-23T19:57:55.304Z,11.93
2019-04-23T20:00:17.110Z,11.97
2019-04-23T20:05:13.709Z,14.87
2019-04-23T20:07:52.232Z,15.63
2019-04-23T20:09:56.880Z,18.53
2019-04-23T20:12:38.683Z,16.07
2019-04-23T20:14:56.245Z,15.43
2019-04-23T20:19:48.311Z,13.03
2019-04-23T20:22:29.201Z,15.50
2019-04-23T20:30:14.423Z,16.43
2019-04-23T20:34:59.089Z,18.20
2019-04-23T20:37:29.401Z,18.73
2019-04-23T20:39:50.799Z,13.43
2019-04-23T20:44:50.816Z,18.63
2019-04-23T20:47:11.468Z,14.63
2019-04-23T20:52:04.746Z,17.33
2019-04-23T20:54:44.656Z,15.13
2019-04-23T20:57:22.980Z,14.63
2019-04-23T20:59:49.897Z,14.80
2019-04-23T21:02:34.349Z,17.17
2019-04-23T21:05:01.395Z,13.43
2019-04-23T21:07:22.141Z,18.70
2019-04-23T21:09:51.522Z,16.90
2019-04-23T21:12:16.183Z,15.63
2019-04-23T21:14:48.408Z,10.93
2019-04-23T21:17:07.410Z,18.07
2019-04-23T21:19:48.618Z,19.92
2019-04-23T21:22:02.561Z,19.13
2019-04-23T21:24:27.478Z,16.00
2019-04-23T21:27:07.347Z,17.45
2019-04-23T21:29:36.419Z,13.47
2019-04-23T21:31:48.502Z,16.23
2019-04-23T21:36:44.505Z,31.50
2019-04-23T21:39:24.645Z,15.20
2019-04-23T21:46:58.778Z,12.27
2019-04-23T21:49:50.689Z,14.43
2019-04-23T21:51:56.451Z,12.63
2019-04-23T21:54:07.943Z,16.23
2019-04-23T21:56:42.969Z,12.70
2019-04-23T22:06:40.054Z,19.50
2019-04-23T22:18:58.613Z,14.57
2019-04-23T22:21:15.339Z,16.40
2019-04-23T22:23:52.629Z,14.23
2019-04-23T22:26:16.803Z,20.10
2019-04-23T22:28:43.512Z,19.93
2019-04-23T22:31:04.051Z,17.80
2019-04-23T22:33:26.868Z,20.10
2019-04-23T22:35:55.639Z,23.10
2019-04-23T22:38:18.737Z,12.90
2019-04-23T22:40:50.717Z,16.83
2019-04-23T22:45:43.103Z,14.23
2019-04-23T22:50:38.484Z,11.83
2019-04-23T22:53:01.543Z,16.07
2019-04-23T22:55:27.666Z,13.43
2019-04-23T23:03:01.240Z,19.53
2019-04-23T23:05:29.033Z,14.83
2019-04-23T23:07:56.241Z,19.65
2019-04-23T23:10:28.358Z,21.33
2019-04-23T23:12:53.322Z,13.10
2019-04-23T23:15:15.967Z,13.33
2019-04-23T23:17:45.555Z,16.00
2019-04-23T23:20:15.693Z,14.00
2019-04-23T23:22:31.487Z,14.50
2019-04-23T23:25:04.715Z,24.00
2019-04-23T23:27:24.693Z,15.60
2019-04-23T23:29:58.118Z,16.63
2019-04-23T23:32:24.440Z,17.80
2019-04-23T23:35:00.766Z,16.50
2019-04-23T23:37:12.144Z,18.90
2019-04-23T23:39:40.667Z,18.50
2019-04-23T23:42:18.114Z,17.23
2019-04-23T23:47:03.192Z,16.77
2019-04-23T23:49:28.447Z,15.50
2019-04-23T23:51:55.349Z,18.47
2019-04-23T23:56:52.311Z,16.07
2019-04-23T23:59:26.974Z,13.60
